Time;durP1;ratioP1;P1;durP2;ratioP2;P2;SDS_P1;SDS_P2;PMS_P1;PMS_P2;Temp;Humidity;BMP_temperature;BMP_pressure;BME280_temperature;BME280_humidity;BME280_pressure;Samples;Min_cycle;Max_cycle;Signal;HPM_P1;HPM_P2
2022/08/13 00:01:40;;;;;;;3.72;1.60;;;;;;;21.80;52.33;98442.31;5011929;28;20033;-60
2022/08/13 00:04:14;;;;;;;4.30;1.55;;;;;;;21.36;53.63;98427.53;5008148;28;20436;-59
2022/08/13 00:09:12;;;;;;;3.70;1.50;;;;;;;21.18;54.11;98405.31;5010074;28;20084;-60
2022/08/13 00:14:27;;;;;;;4.18;1.90;;;;;;;21.52;54.28;98431.44;5019161;28;20119;-58
2022/08/13 00:16:54;;;;;;;3.77;1.60;;;;;;;21.58;54.01;98436.69;4995636;28;20078;-58
2022/08/13 00:19:20;;;;;;;5.15;1.60;;;;;;;21.72;53.51;98431.22;5012592;28;20030;-58
2022/08/13 00:21:47;;;;;;;5.55;1.50;;;;;;;21.44;53.60;98398.13;5000460;28;20036;-59
2022/08/13 00:24:13;;;;;;;4.20;1.40;;;;;;;21.79;53.73;98435.41;5014936;28;20033;-58
2022/08/13 00:26:38;;;;;;;4.00;1.70;;;;;;;21.71;53.77;98429.63;5018114;28;20027;-59
2022/08/13 00:29:04;;;;;;;3.90;1.60;;;;;;;21.87;53.17;98418.44;5044535;28;20571;-58
2022/08/13 00:31:31;;;;;;;4.10;1.83;;;;;;;21.70;53.78;98423.50;5018455;28;20021;-59
2022/08/13 00:33:58;;;;;;;3.92;1.58;;;;;;;21.65;53.96;98423.38;5013564;28;20037;-58
2022/08/13 00:36:23;;;;;;;4.68;1.80;;;;;;;21.51;54.42;98425.34;5013150;28;20036;-58
2022/08/13 00:38:52;;;;;;;2.85;1.20;;;;;;;21.42;54.42;98397.56;5014368;28;20037;-60
2022/08/13 00:44:04;;;;;;;3.60;1.60;;;;;;;21.56;54.13;98416.75;5011381;28;20117;-58
2022/08/13 00:46:31;;;;;;;4.50;1.50;;;;;;;21.69;53.79;98404.19;5018747;28;20897;-58
2022/08/13 00:48:56;;;;;;;5.47;2.15;;;;;;;21.88;53.56;98412.91;5012705;28;20052;-59
2022/08/13 00:51:23;;;;;;;5.25;1.50;;;;;;;21.58;53.45;98359.97;5013164;28;20037;-58
2022/08/13 00:53:49;;;;;;;3.75;1.50;;;;;;;21.47;54.81;98395.88;5015005;28;20049;-58
2022/08/13 00:56:15;;;;;;;3.72;1.67;;;;;;;21.25;56.68;98405.25;4995086;28;20465;-59
2022/08/13 00:58:41;;;;;;;3.75;1.65;;;;;;;21.10;57.06;98402.94;5019074;28;20029;-58
2022/08/13 01:01:07;;;;;;;3.80;1.77;;;;;;;20.45;58.17;98358.34;5004079;28;20095;-58
2022/08/13 01:03:35;;;;;;;4.15;1.80;;;;;;;20.83;58.59;98397.09;5003020;28;20062;-59
2022/08/13 01:06:02;;;;;;;3.95;1.67;;;;;;;20.54;60.92;98351.78;5002358;28;20057;-59
2022/08/13 01:08:32;;;;;;;4.32;1.70;;;;;;;20.71;59.41;98389.84;5017565;28;20535;-58
2022/08/13 01:11:05;;;;;;;4.63;1.90;;;;;;;20.53;59.66;98395.03;5018994;28;20028;-58
2022/08/13 01:13:33;;;;;;;4.65;1.88;;;;;;;20.40;61.92;98385.38;5049434;28;20060;-59
2022/08/13 01:16:04;;;;;;;4.18;1.75;;;;;;;20.37;62.70;98388.47;5003612;28;20030;-58
2022/08/13 01:18:31;;;;;;;4.82;1.88;;;;;;;20.31;63.04;98382.19;5016897;28;20033;-58
2022/08/13 01:21:17;;;;;;;5.40;1.88;;;;;;;20.40;63.59;98374.81;4993379;28;20050;-59
2022/08/13 01:23:45;;;;;;;5.05;1.85;;;;;;;20.49;63.96;98367.47;5013301;28;20113;-58
2022/08/13 01:26:12;;;;;;;4.13;1.92;;;;;;;20.39;64.83;98359.19;5019566;28;20044;-58
2022/08/13 01:28:38;;;;;;;4.97;2.00;;;;;;;20.54;64.13;98363.16;5008859;28;20021;-58
2022/08/13 01:31:06;;;;;;;4.47;2.10;;;;;;;20.47;64.96;98362.38;5000888;28;20040;-58
2022/08/13 01:33:36;;;;;;;4.13;1.98;;;;;;;20.17;64.74;98335.81;5016270;28;20076;-57
2022/08/13 01:36:04;;;;;;;4.38;1.90;;;;;;;20.27;65.29;98370.44;5019015;28;20076;-58
2022/08/13 01:38:30;;;;;;;4.72;2.17;;;;;;;20.32;64.65;98364.53;5014231;28;20811;-58
2022/08/13 01:40:56;;;;;;;4.38;1.88;;;;;;;20.18;65.17;98361.16;5016931;28;20061;-58
2022/08/13 01:43:25;;;;;;;5.03;2.22;;;;;;;20.21;65.41;98379.22;5020735;28;20064;-58
2022/08/13 01:45:51;;;;;;;3.95;1.80;;;;;;;20.17;65.18;98367.47;5018271;28;20018;-58
2022/08/13 01:51:08;;;;;;;4.55;2.00;;;;;;;20.10;65.45;98356.94;5020540;28;20111;-59
2022/08/13 01:53:34;;;;;;;4.15;2.00;;;;;;;19.96;65.46;98315.81;5018234;28;20033;-57
2022/08/13 01:56:01;;;;;;;4.80;2.00;;;;;;;20.11;65.38;98353.28;5021503;28;20660;-59
2022/08/13 01:58:29;;;;;;;5.13;1.90;;;;;;;20.17;66.14;98344.53;5010602;28;20030;-59
2022/08/13 02:01:00;;;;;;;4.97;1.90;;;;;;;20.26;67.04;98355.66;5000070;28;20052;-58
2022/08/13 02:03:25;;;;;;;6.70;2.28;;;;;;;20.31;66.57;98349.72;5013166;28;20037;-59
2022/08/13 02:05:51;;;;;;;4.35;1.92;;;;;;;20.20;67.58;98339.84;5017155;28;20029;-58
2022/08/13 02:08:22;;;;;;;3.83;1.80;;;;;;;20.27;68.25;98351.16;5000200;28;20036;-57
2022/08/13 02:10:50;;;;;;;4.40;1.90;;;;;;;20.29;67.56;98338.56;4998611;28;20559;-58
2022/08/13 02:13:19;;;;;;;4.32;1.77;;;;;;;20.19;68.02;98339.03;5020375;28;20037;-60
2022/08/13 02:15:49;;;;;;;5.60;1.77;;;;;;;20.24;69.30;98346.31;5014685;28;20034;-58
2022/08/13 02:18:20;;;;;;;4.75;2.00;;;;;;;20.15;69.84;98343.94;5000056;28;20037;-59
2022/08/13 02:20:48;;;;;;;4.07;1.90;;;;;;;20.34;67.61;98336.09;5017546;28;20029;-58
2022/08/13 02:23:25;;;;;;;3.40;1.52;;;;;;;20.35;64.48;98335.88;5015084;28;20604;-60
2022/08/13 02:25:51;;;;;;;4.28;1.70;;;;;;;20.41;64.08;98325.47;5015962;28;20567;-58
2022/08/13 02:28:19;;;;;;;4.47;1.90;;;;;;;20.35;63.35;98316.56;5016331;28;20022;-57
2022/08/13 02:30:45;;;;;;;5.00;2.05;;;;;;;20.28;65.17;98307.88;5012050;28;20436;-58
2022/08/13 02:33:11;;;;;;;4.15;1.70;;;;;;;20.27;66.22;98307.09;5019816;28;20037;-58
2022/08/13 02:35:37;;;;;;;5.90;1.88;;;;;;;20.40;66.58;98315.94;5020278;28;20060;-58
2022/08/13 02:38:03;;;;;;;4.45;1.55;;;;;;;20.06;66.87;98284.50;5010046;28;20030;-58
2022/08/13 02:43:13;;;;;;;4.00;1.85;;;;;;;20.27;65.33;98314.22;5018130;28;20090;-58
2022/08/13 02:45:39;;;;;;;4.10;1.70;;;;;;;20.31;64.17;98312.75;5020359;28;20053;-58
2022/08/13 02:48:05;;;;;;;4.53;1.90;;;;;;;20.26;63.06;98305.47;5008670;28;20383;-58
2022/08/13 02:50:32;;;;;;;4.32;1.80;;;;;;;20.37;64.08;98314.53;5018496;28;20030;-58
2022/08/13 02:52:57;;;;;;;4.45;1.70;;;;;;;20.25;63.02;98310.97;5018936;28;20045;-57
2022/08/13 02:55:28;;;;;;;4.45;2.03;;;;;;;20.26;62.47;98325.78;5018643;28;20029;-58
2022/08/13 02:57:53;;;;;;;4.40;1.80;;;;;;;20.14;62.52;98321.19;5017591;28;20033;-59
2022/08/13 03:00:20;;;;;;;3.80;1.67;;;;;;;20.17;62.62;98323.41;5018871;28;20040;-58
2022/08/13 03:02:45;;;;;;;5.70;2.15;;;;;;;20.10;62.24;98333.19;5011555;28;20036;-59
2022/08/13 03:05:16;;;;;;;5.15;1.70;;;;;;;20.03;62.77;98331.63;5002330;28;20033;-58
2022/08/13 03:07:44;;;;;;;4.22;1.77;;;;;;;20.02;62.71;98325.53;4997005;28;20048;-58
2022/08/13 03:10:11;;;;;;;3.40;1.50;;;;;;;19.80;62.60;98274.13;5017325;28;20171;-59
2022/08/13 03:12:41;;;;;;;4.57;1.92;;;;;;;20.07;62.82;98315.13;4998812;28;20022;-57
2022/08/13 03:15:12;;;;;;;4.78;2.00;;;;;;;20.12;63.68;98311.88;5019201;28;20050;-58
2022/08/13 03:17:38;;;;;;;5.40;1.80;;;;;;;19.93;62.68;98281.94;5017095;28;20495;-58
2022/08/13 03:20:06;;;;;;;4.22;1.98;;;;;;;20.08;62.78;98300.09;4997143;28;20026;-58
2022/08/13 03:22:31;;;;;;;4.32;1.88;;;;;;;20.06;63.04;98305.63;4997198;28;20048;-58
2022/08/13 03:24:57;;;;;;;5.30;2.28;;;;;;;19.91;64.06;98307.72;5014910;28;20064;-59
2022/08/13 03:27:24;;;;;;;4.00;1.80;;;;;;;19.87;64.38;98296.00;5015417;28;20476;-59
2022/08/13 03:29:53;;;;;;;5.68;1.80;;;;;;;19.83;64.66;98277.16;5012913;28;20068;-58
2022/08/13 03:32:18;;;;;;;4.63;1.70;;;;;;;19.85;64.70;98290.94;5016188;28;20099;-58
2022/08/13 03:34:44;;;;;;;4.00;1.90;;;;;;;19.87;65.87;98293.34;5047335;28;20909;-58
2022/08/13 03:37:10;;;;;;;7.93;2.17;;;;;;;19.92;66.53;98302.25;5020919;28;20064;-58
2022/08/13 03:39:36;;;;;;;4.20;1.88;;;;;;;19.98;67.45;98296.13;5029123;28;20025;-58
2022/08/13 03:42:01;;;;;;;3.85;1.80;;;;;;;19.91;67.38;98299.81;4998956;28;20057;-59
2022/08/13 03:44:28;;;;;;;4.07;1.73;;;;;;;19.92;65.85;98288.25;5017260;28;20091;-59
2022/08/13 03:46:53;;;;;;;4.57;1.80;;;;;;;19.86;66.65;98294.38;5018150;28;20025;-59
2022/08/13 03:49:19;;;;;;;4.30;1.80;;;;;;;19.89;65.97;98296.59;5005614;28;20036;-59
2022/08/13 03:51:44;;;;;;;4.63;1.90;;;;;;;19.87;65.45;98298.63;5021788;28;20032;-58
2022/08/13 03:54:10;;;;;;;4.68;1.90;;;;;;;19.86;64.81;98304.91;5019575;28;20033;-58
2022/08/13 03:56:35;;;;;;;4.20;1.70;;;;;;;19.89;64.70;98302.66;5023394;28;20572;-58
2022/08/13 03:59:02;;;;;;;3.90;1.73;;;;;;;19.90;64.91;98300.84;5019956;28;20787;-58
2022/08/13 04:01:27;;;;;;;4.85;1.70;;;;;;;19.78;66.08;98295.44;5000610;28;20398;-59
2022/08/13 04:03:52;;;;;;;4.65;1.70;;;;;;;19.81;66.31;98299.50;5017823;28;20030;-58
2022/08/13 04:06:20;;;;;;;4.35;1.70;;;;;;;19.83;65.71;98297.44;5017505;28;20536;-58
2022/08/13 04:08:47;;;;;;;4.13;1.77;;;;;;;19.91;65.83;98300.63;5021166;28;20097;-58
2022/08/13 04:11:17;;;;;;;5.13;2.10;;;;;;;19.98;65.00;98303.22;5004695;28;20033;-58
2022/08/13 04:13:42;;;;;;;3.70;1.60;;;;;;;19.81;65.43;98271.28;5020051;28;20033;-58
2022/08/13 04:16:18;;;;;;;3.95;1.70;;;;;;;19.57;66.63;98257.78;5023324;28;20040;-58
2022/08/13 04:18:45;;;;;;;5.03;1.70;;;;;;;19.70;66.97;98307.00;5017929;28;20067;-59
2022/08/13 04:21:16;;;;;;;4.18;1.88;;;;;;;19.66;67.96;98302.34;5016794;28;20036;-61
2022/08/13 04:23:43;;;;;;;4.47;1.70;;;;;;;19.65;68.05;98295.47;5020359;28;20124;-59
2022/08/13 04:26:16;;;;;;;4.18;1.65;;;;;;;19.63;68.58;98303.59;5018447;28;20095;-58
2022/08/13 04:28:42;;;;;;;4.68;1.80;;;;;;;19.64;68.63;98297.31;5016668;28;20025;-58
2022/08/13 04:31:11;;;;;;;4.50;1.85;;;;;;;19.53;68.44;98303.22;5016399;28;20524;-58
2022/08/13 04:33:38;;;;;;;3.80;1.77;;;;;;;19.62;67.19;98299.34;5018074;28;20180;-59
2022/08/13 04:36:04;;;;;;;4.03;1.75;;;;;;;19.47;66.10;98289.06;5020009;28;20055;-58
2022/08/13 04:38:29;;;;;;;4.20;1.70;;;;;;;19.50;65.94;98307.09;5015943;28;20029;-60
2022/08/13 04:40:56;;;;;;;3.90;1.88;;;;;;;19.47;65.79;98302.25;5021863;28;20071;-59
2022/08/13 04:43:22;;;;;;;5.03;1.80;;;;;;;19.55;65.44;98295.94;5017328;28;20114;-58
2022/08/13 04:45:48;;;;;;;5.70;1.90;;;;;;;19.38;65.57;98267.44;5012510;28;20420;-59
2022/08/13 04:48:15;;;;;;;4.50;1.80;;;;;;;19.50;66.64;98298.41;5033166;28;20033;-58
2022/08/13 04:50:42;;;;;;;3.50;1.60;;;;;;;19.55;66.50;98299.38;5018839;28;20530;-58
2022/08/13 04:53:29;;;;;;;4.00;1.70;;;;;;;19.54;66.33;98296.94;5002778;28;20136;-58
2022/08/13 04:55:55;;;;;;;3.72;1.70;;;;;;;19.53;66.60;98287.41;5023881;28;20036;-59
2022/08/13 04:58:23;;;;;;;4.22;1.80;;;;;;;19.45;65.94;98272.66;5016591;28;20399;-58
2022/08/13 05:00:50;;;;;;;3.92;1.50;;;;;;;19.62;66.38;98306.44;5018922;28;20029;-59
2022/08/13 05:03:18;;;;;;;4.00;1.90;;;;;;;19.54;66.45;98307.50;5002564;28;20119;-58
2022/08/13 05:05:45;;;;;;;3.67;1.77;;;;;;;19.65;65.63;98312.09;4998215;28;20045;-58
2022/08/13 05:08:11;;;;;;;3.60;1.77;;;;;;;19.59;66.34;98302.41;5021304;28;20041;-57
2022/08/13 05:10:38;;;;;;;4.18;1.75;;;;;;;19.40;67.03;98275.94;5024418;28;20034;-59
2022/08/13 05:13:30;;;;;;;3.63;1.70;;;;;;;19.50;67.42;98311.59;5020773;28;20102;-58
2022/08/13 05:15:58;;;;;;;3.85;1.77;;;;;;;19.35;68.00;98275.75;5005213;28;20092;-58
2022/08/13 05:18:25;;;;;;;3.78;1.63;;;;;;;19.38;67.98;98316.69;5020673;28;20781;-58
2022/08/13 05:20:53;;;;;;;5.15;1.90;;;;;;;19.26;67.78;98311.25;5001848;28;20485;-58
2022/08/13 05:23:19;;;;;;;4.22;1.77;;;;;;;19.24;65.79;98320.38;5020793;28;20033;-59
2022/08/13 05:25:44;;;;;;;4.00;1.80;;;;;;;19.27;65.74;98317.34;5018512;28;20125;-58
2022/08/13 05:28:10;;;;;;;4.32;1.55;;;;;;;19.23;66.26;98316.13;5003664;28;20036;-58
2022/08/13 05:30:38;;;;;;;4.43;2.00;;;;;;;19.13;67.38;98301.56;5016045;28;20040;-58
2022/08/13 05:33:14;;;;;;;4.18;1.95;;;;;;;19.09;66.92;98289.81;5012300;28;20537;-57
2022/08/13 05:35:41;;;;;;;4.10;1.90;;;;;;;18.96;67.86;98276.69;5019068;28;20028;-59
2022/08/13 05:38:07;;;;;;;4.00;1.92;;;;;;;19.04;68.02;98270.38;5017170;28;20052;-58
2022/08/13 05:40:33;;;;;;;4.32;1.95;;;;;;;19.25;68.06;98317.53;5016351;28;20021;-58
2022/08/13 05:42:59;;;;;;;4.22;1.98;;;;;;;19.00;68.59;98280.50;5004132;28;20048;-60
2022/08/13 05:45:25;;;;;;;4.10;2.00;;;;;;;19.13;68.79;98298.94;5017109;28;20029;-57
2022/08/13 05:47:51;;;;;;;5.43;1.90;;;;;;;19.26;68.62;98311.25;5019038;28;20033;-58
2022/08/13 05:50:17;;;;;;;3.85;1.83;;;;;;;19.27;68.50;98310.22;4996392;28;20031;-58
2022/08/13 05:52:43;;;;;;;3.88;1.60;;;;;;;19.28;68.16;98311.84;5016398;28;20659;-58
2022/08/13 05:55:11;;;;;;;4.80;2.00;;;;;;;19.29;68.38;98304.75;5014697;28;20021;-58
2022/08/13 05:57:39;;;;;;;5.32;1.95;;;;;;;19.35;68.63;98317.91;5018743;28;20037;-58
2022/08/13 06:05:37;;;;;;;4.60;1.85;;;;;;;19.18;70.76;98301.75;5017215;28;20144;-58
2022/08/13 06:08:04;;;;;;;4.28;2.15;;;;;;;19.25;70.81;98316.75;5000870;28;20033;-59
2022/08/13 06:10:30;;;;;;;5.85;1.90;;;;;;;19.29;70.94;98307.38;5016267;28;20304;-59
2022/08/13 06:12:56;;;;;;;4.07;1.75;;;;;;;19.32;71.48;98310.41;5018054;28;20029;-59
2022/08/13 06:15:22;;;;;;;3.85;1.80;;;;;;;19.24;72.06;98312.47;5011515;28;20496;-58
2022/08/13 06:17:50;;;;;;;3.75;1.70;;;;;;;19.33;71.93;98317.31;5012393;28;20037;-58
2022/08/13 06:20:17;;;;;;;5.15;1.88;;;;;;;19.17;71.96;98291.44;5021880;28;21288;-58
2022/08/13 06:22:45;;;;;;;5.10;2.13;;;;;;;19.38;71.93;98314.88;4999464;28;20025;-59
2022/08/13 06:25:10;;;;;;;4.25;2.00;;;;;;;19.40;72.24;98323.38;5013519;28;20025;-58
2022/08/13 06:27:36;;;;;;;4.57;2.13;;;;;;;19.49;72.90;98320.50;5016093;28;20037;-58
2022/08/13 06:30:01;;;;;;;4.20;1.85;;;;;;;19.59;71.00;98323.50;5012854;28;20030;-58
2022/08/13 06:32:30;;;;;;;3.92;1.98;;;;;;;19.59;70.56;98319.03;5013613;28;20056;-58
2022/08/13 06:34:56;;;;;;;5.30;2.00;;;;;;;19.46;69.92;98318.28;4999154;28;20485;-58
2022/08/13 06:37:22;;;;;;;9.20;2.00;;;;;;;19.55;68.55;98322.31;5009103;28;20087;-60
2022/08/13 06:39:49;;;;;;;3.88;1.75;;;;;;;19.55;69.65;98317.03;5012369;28;20026;-59
2022/08/13 06:42:14;;;;;;;4.75;2.00;;;;;;;19.48;70.54;98309.16;4995744;28;20061;-58
2022/08/13 06:44:40;;;;;;;4.10;2.00;;;;;;;19.62;70.04;98317.00;5009738;28;20133;-58
2022/08/13 06:47:06;;;;;;;5.80;2.20;;;;;;;19.59;69.67;98312.97;5013886;28;20072;-58
2022/08/13 06:49:32;;;;;;;3.72;1.77;;;;;;;19.41;68.65;98282.00;5010838;28;20171;-58
2022/08/13 06:51:59;;;;;;;4.60;1.77;;;;;;;19.57;67.88;98315.00;5003318;28;20045;-58
2022/08/13 06:54:25;;;;;;;4.70;2.05;;;;;;;19.30;67.74;98256.31;5016988;28;20683;-58
2022/08/13 06:56:53;;;;;;;4.07;2.00;;;;;;;19.52;67.17;98307.69;5018222;28;20119;-59
2022/08/13 06:59:20;;;;;;;5.75;2.00;;;;;;;19.28;67.43;98267.06;4998526;28;20746;-58
2022/08/13 07:01:46;;;;;;;4.00;1.83;;;;;;;19.56;68.28;98297.53;5009381;28;20182;-58
2022/08/13 07:04:18;;;;;;;4.60;2.00;;;;;;;19.60;67.28;98293.47;5015236;28;20116;-58
2022/08/13 07:06:47;;;;;;;4.22;2.00;;;;;;;19.67;67.02;98299.50;5008789;28;20214;-59
2022/08/13 07:09:13;;;;;;;5.97;1.87;;;;;;;19.50;66.33;98285.22;5006044;28;20494;-58
2022/08/13 07:11:43;;;;;;;5.97;2.30;;;;;;;19.67;66.39;98309.25;5011670;28;20033;-58
2022/08/13 07:14:08;;;;;;;6.30;2.50;;;;;;;19.73;66.17;98303.16;5022167;28;20101;-60
2022/08/13 07:16:34;;;;;;;4.60;1.80;;;;;;;19.65;65.79;98298.13;5014630;28;20542;-60
2022/08/13 07:19:00;;;;;;;5.82;1.90;;;;;;;19.68;64.42;98295.88;5014417;28;20033;-58
2022/08/13 07:21:27;;;;;;;4.18;1.95;;;;;;;19.56;63.94;98273.81;5016119;28;20800;-59
2022/08/13 07:23:53;;;;;;;4.13;2.00;;;;;;;19.83;63.50;98298.25;5048327;28;20033;-58
2022/08/13 07:26:20;;;;;;;3.90;1.70;;;;;;;19.93;62.32;98303.88;5015488;28;20036;-58
2022/08/13 07:28:49;;;;;;;6.13;3.10;;;;;;;19.94;62.20;98294.13;5001393;28;20045;-58
2022/08/13 07:31:19;;;;;;;12.18;4.95;;;;;;;20.04;63.36;98301.56;5004263;28;20392;-57
2022/08/13 07:33:51;;;;;;;7.22;3.28;;;;;;;20.12;63.21;98302.13;5014844;28;20113;-57
2022/08/13 07:36:19;;;;;;;6.63;3.33;;;;;;;20.19;62.84;98293.34;5015915;28;20855;-57
2022/08/13 07:38:45;;;;;;;6.85;4.00;;;;;;;20.19;63.07;98293.34;5000544;28;20057;-57
2022/08/13 07:41:11;;;;;;;6.20;3.65;;;;;;;20.06;63.01;98258.13;5006166;28;20197;-58
2022/08/13 07:43:39;;;;;;;5.07;2.80;;;;;;;20.27;62.27;98279.88;5021688;28;20041;-59
2022/08/13 07:46:15;;;;;;;5.10;2.40;;;;;;;20.02;61.07;98243.72;5014623;28;20496;-57
2022/08/13 07:48:43;;;;;;;5.40;2.05;;;;;;;20.31;60.82;98279.22;4996540;28;20026;-58
2022/08/13 07:51:20;;;;;;;6.20;2.53;;;;;;;20.28;60.42;98260.38;5018999;28;20116;-58
2022/08/13 07:53:56;;;;;;;6.10;2.80;;;;;;;20.27;59.71;98259.56;5012916;28;20084;-59
2022/08/13 07:56:32;;;;;;;7.55;4.18;;;;;;;20.34;59.63;98270.09;5023966;28;20317;-55
2022/08/13 07:59:11;;;;;;;4.47;2.42;;;;;;;20.45;59.52;98269.38;5021797;28;20048;-56
2022/08/13 08:01:51;;;;;;;5.35;2.45;;;;;;;20.47;59.48;98272.59;5021376;28;20021;-57
2022/08/13 08:04:18;;;;;;;4.47;1.80;;;;;;;20.42;59.96;98275.06;5000975;28;20092;-58
2022/08/13 08:06:45;;;;;;;6.40;2.30;;;;;;;20.45;59.22;98269.38;5014052;28;20377;-58
2022/08/13 08:09:16;;;;;;;4.65;1.90;;;;;;;20.53;58.55;98276.19;5035485;28;20524;-59
2022/08/13 08:14:27;;;;;;;4.38;2.00;;;;;;;20.63;58.78;98279.19;5004380;28;20037;-57
2022/08/13 08:16:53;;;;;;;4.90;2.33;;;;;;;20.68;58.24;98270.59;5013339;28;20046;-58
2022/08/13 08:19:19;;;;;;;5.50;2.45;;;;;;;20.92;57.46;98266.31;5015429;28;20523;-57
2022/08/13 08:21:46;;;;;;;6.30;2.95;;;;;;;22.10;54.83;98264.16;5022140;28;20036;-57
2022/08/13 08:24:13;;;;;;;7.43;2.30;;;;;;;22.65;53.18;98269.22;5021819;28;20049;-58
2022/08/13 08:26:40;;;;;;;3.92;1.70;;;;;;;23.22;51.31;98246.53;5019114;28;20025;-58
2022/08/13 08:29:09;;;;;;;5.70;1.65;;;;;;;23.84;49.49;98272.38;5014933;28;20124;-58
2022/08/13 08:31:39;;;;;;;3.25;1.30;;;;;;;23.86;48.73;98240.28;4995289;28;20030;-56
2022/08/13 08:34:07;;;;;;;4.72;1.60;;;;;;;24.59;46.22;98264.25;5032554;28;20034;-56
2022/08/13 08:36:37;;;;;;;3.50;1.40;;;;;;;24.96;46.47;98256.53;5003615;28;20075;-59
2022/08/13 08:44:33;;;;;;;4.78;1.65;;;;;;;25.45;44.52;98259.25;5017621;28;20074;-60
2022/08/13 08:47:02;;;;;;;3.97;1.67;;;;;;;25.92;44.33;98259.69;5013175;28;20486;-59
2022/08/13 08:49:30;;;;;;;;;;;;;;;25.85;43.00;98249.28;5022148;28;20025;-58
2022/08/13 08:51:56;;;;;;;3.78;1.30;;;;;;;26.03;43.00;98259.59;4996517;28;20366;-57
2022/08/13 08:54:23;;;;;;;3.90;1.55;;;;;;;26.46;41.61;98246.28;4994294;28;20033;-56
2022/08/13 08:56:54;;;;;;;4.25;1.65;;;;;;;27.18;40.74;98242.13;5003097;28;20278;-57
2022/08/13 08:59:21;;;;;;;3.70;1.40;;;;;;;26.70;41.59;98224.59;5005087;28;20128;-58
2022/08/13 09:01:46;;;;;;;4.60;1.67;;;;;;;27.60;40.30;98248.41;4994615;28;20030;-58
2022/08/13 09:04:13;;;;;;;3.63;1.45;;;;;;;28.22;39.08;98248.44;4997203;28;20064;-59
2022/08/13 09:06:40;;;;;;;3.28;1.38;;;;;;;28.06;38.68;98248.47;4998111;28;20061;-58
2022/08/13 09:09:08;;;;;;;3.50;1.30;;;;;;;28.00;37.97;98241.50;5011175;28;20033;-59
2022/08/13 09:11:37;;;;;;;3.67;1.38;;;;;;;28.14;37.36;98242.56;5015392;28;20033;-58
2022/08/13 09:14:07;;;;;;;3.77;1.43;;;;;;;27.54;37.65;98238.78;5013268;28;20125;-58
2022/08/13 09:16:34;;;;;;;3.70;1.38;;;;;;;27.45;37.87;98229.69;5009946;28;20040;-58
2022/08/13 09:19:00;;;;;;;3.50;1.20;;;;;;;26.50;38.48;98195.94;5005834;28;20026;-58
2022/08/13 09:21:25;;;;;;;3.55;1.30;;;;;;;26.20;39.96;98202.69;5007699;28;20025;-59
2022/08/13 09:23:52;;;;;;;4.13;1.60;;;;;;;25.83;40.84;98230.06;5010184;28;20760;-59
2022/08/13 09:26:18;;;;;;;3.45;1.20;;;;;;;25.45;41.04;98232.66;5013176;28;20038;-60
2022/08/13 09:28:45;;;;;;;3.30;1.20;;;;;;;25.04;41.59;98202.91;5006379;28;20144;-59
2022/08/13 09:31:11;;;;;;;3.05;1.20;;;;;;;24.82;41.38;98232.16;5010388;28;20033;-58
2022/08/13 09:33:38;;;;;;;3.75;1.45;;;;;;;24.83;42.90;98219.69;5011558;28;20030;-57
2022/08/13 09:36:09;;;;;;;4.13;1.30;;;;;;;24.82;42.63;98226.03;5003755;28;20120;-57
2022/08/13 09:38:37;;;;;;;4.63;1.30;;;;;;;24.81;43.39;98227.91;5003388;28;20164;-58
2022/08/13 09:41:17;;;;;;;4.53;1.35;;;;;;;24.73;43.95;98180.47;4994032;28;20037;-58
2022/08/13 09:43:44;;;;;;;4.22;1.10;;;;;;;24.53;43.74;98183.66;5006403;28;20045;-59
2022/08/13 09:46:10;;;;;;;3.50;1.10;;;;;;;24.70;42.16;98200.38;5003895;28;20021;-61
2022/08/13 09:48:37;;;;;;;3.28;1.20;;;;;;;24.73;43.48;98207.06;5008458;28;20375;-58
2022/08/13 09:51:04;;;;;;;3.25;1.27;;;;;;;24.62;41.39;98208.78;4994426;28;20030;-59
2022/08/13 09:53:29;;;;;;;2.92;1.00;;;;;;;24.41;39.98;98177.66;5016408;28;20033;-59
2022/08/13 09:55:56;;;;;;;3.67;1.15;;;;;;;24.61;39.90;98204.53;5002420;28;20037;-59
2022/08/13 09:58:25;;;;;;;3.90;1.42;;;;;;;24.55;39.83;98201.00;5008201;28;20041;-58
2022/08/13 10:00:52;;;;;;;3.40;1.40;;;;;;;24.59;39.61;98198.66;5010001;28;20457;-57
2022/08/13 10:03:18;;;;;;;3.90;1.20;;;;;;;24.53;40.14;98157.91;5004199;28;20049;-58
2022/08/13 10:05:45;;;;;;;3.50;1.33;;;;;;;24.71;39.17;98178.06;5001051;28;20035;-58
2022/08/13 10:08:16;;;;;;;3.42;1.40;;;;;;;24.85;39.70;98175.84;5009167;28;20779;-57
2022/08/13 10:10:44;;;;;;;3.25;1.40;;;;;;;25.09;39.37;98189.66;4989199;28;20037;-57
2022/08/13 10:13:10;;;;;;;3.90;1.33;;;;;;;25.09;39.54;98189.66;4993623;28;20041;-59
2022/08/13 10:15:36;;;;;;;4.80;1.20;;;;;;;25.16;39.45;98180.72;4990186;28;20120;-60
2022/08/13 10:18:02;;;;;;;3.38;1.20;;;;;;;25.14;39.80;98195.03;5007086;28;20487;-58
2022/08/13 10:20:36;;;;;;;3.60;1.20;;;;;;;24.82;40.14;98160.38;4997543;28;20029;-59
2022/08/13 10:23:03;;;;;;;6.63;2.03;;;;;;;25.15;40.86;98190.53;5000074;28;20612;-58
2022/08/13 10:25:29;;;;;;;4.70;1.30;;;;;;;25.08;41.09;98187.25;5011564;28;20496;-58
2022/08/13 10:27:55;;;;;;;3.30;1.40;;;;;;;25.06;40.38;98152.13;5006427;28;20110;-58
2022/08/13 10:30:25;;;;;;;5.03;1.20;;;;;;;25.17;40.92;98172.44;5000022;28;21329;-59
2022/08/13 10:32:55;;;;;;;3.47;1.42;;;;;;;24.84;39.73;98129.03;5007726;28;20615;-59
2022/08/13 10:35:24;;;;;;;3.45;1.38;;;;;;;25.02;39.03;98170.44;4998733;28;20388;-58
2022/08/13 10:37:54;;;;;;;2.75;1.10;;;;;;;25.17;38.78;98161.81;4992641;28;20045;-58
2022/08/13 10:40:22;;;;;;;3.33;1.35;;;;;;;25.01;39.45;98125.47;5009595;28;20029;-60
2022/08/13 10:42:53;;;;;;;3.97;1.30;;;;;;;25.24;39.04;98121.75;5007269;28;20792;-58
2022/08/13 10:45:20;;;;;;;4.40;1.30;;;;;;;25.33;38.91;98129.00;4960637;28;20110;-58
2022/08/13 10:47:49;;;;;;;4.05;1.35;;;;;;;25.40;39.78;98123.50;4998197;28;20052;-58
2022/08/13 10:50:15;;;;;;;3.50;1.30;;;;;;;25.50;39.08;98126.25;5020910;28;20036;-58
2022/08/13 10:52:41;;;;;;;3.42;1.20;;;;;;;25.67;38.51;98138.63;5012648;28;20029;-58
2022/08/13 10:55:09;;;;;;;3.88;1.60;;;;;;;25.85;39.69;98138.22;5008441;28;20053;-57
2022/08/13 10:57:45;;;;;;;3.38;1.40;;;;;;;26.04;40.06;98133.31;4997249;28;20094;-58
2022/08/13 11:00:14;;;;;;;3.22;1.10;;;;;;;25.89;39.41;98131.31;5002085;28;20030;-58
2022/08/13 11:02:40;;;;;;;3.03;1.20;;;;;;;25.88;38.75;98129.75;5012823;28;20037;-58
2022/08/13 11:05:08;;;;;;;3.28;1.30;;;;;;;25.96;39.61;98120.50;5013157;28;20057;-58
2022/08/13 11:07:35;;;;;;;3.40;1.40;;;;;;;25.97;39.62;98121.28;5012694;28;20025;-58
2022/08/13 11:10:01;;;;;;;4.60;1.50;;;;;;;26.02;39.41;98118.66;4997358;28;20388;-58
2022/08/13 11:12:26;;;;;;;3.28;1.20;;;;;;;26.02;39.50;98116.00;5013285;28;20064;-57
2022/08/13 11:14:53;;;;;;;3.65;1.42;;;;;;;25.59;39.80;98120.44;4997650;28;20881;-59
2022/08/13 11:17:19;;;;;;;3.22;1.27;;;;;;;25.50;39.11;98118.28;5003963;28;20048;-58
2022/08/13 11:19:46;;;;;;;3.53;1.30;;;;;;;25.61;40.00;98116.50;5018174;28;20059;-57
2022/08/13 11:22:12;;;;;;;4.35;1.42;;;;;;;25.72;40.30;98093.41;5008080;28;20026;-57
2022/08/13 11:24:38;;;;;;;4.35;1.42;;;;;;;26.02;39.07;98118.66;5007966;28;20033;-58
2022/08/13 11:27:04;;;;;;;3.75;1.38;;;;;;;26.02;38.53;98108.81;5010690;28;20032;-58
2022/08/13 11:29:30;;;;;;;4.82;1.33;;;;;;;25.89;39.06;98077.28;5012845;28;20025;-58
2022/08/13 11:31:56;;;;;;;5.72;1.40;;;;;;;26.21;39.01;98103.03;5006727;28;20030;-58
2022/08/13 11:34:21;;;;;;;4.75;1.40;;;;;;;26.29;37.62;98099.91;5004323;28;20033;-58
2022/08/13 11:36:47;;;;;;;3.47;1.30;;;;;;;26.17;37.81;98075.31;5010947;28;20033;-59
2022/08/13 11:39:12;;;;;;;4.35;1.60;;;;;;;26.03;37.77;98059.81;5006891;28;20033;-59
2022/08/13 11:41:38;;;;;;;4.78;1.40;;;;;;;26.22;36.61;98102.78;5009392;28;20033;-57
2022/08/13 11:44:03;;;;;;;3.47;1.40;;;;;;;25.98;37.25;98083.75;5005093;28;20551;-57
2022/08/13 11:46:29;;;;;;;5.47;1.60;;;;;;;26.28;38.16;98092.94;5007710;28;20083;-59
2022/08/13 11:48:54;;;;;;;4.15;1.60;;;;;;;26.42;37.88;98087.97;5003504;28;20564;-58
2022/08/13 11:51:19;;;;;;;3.97;1.60;;;;;;;26.35;37.68;98082.06;5008644;28;20033;-58
2022/08/13 11:53:45;;;;;;;3.80;1.60;;;;;;;26.49;38.06;98085.84;5013846;28;20421;-58
2022/08/13 11:56:10;;;;;;;2.90;1.20;;;;;;;26.43;38.51;98081.53;5014011;28;20045;-59
2022/08/13 11:58:36;;;;;;;3.08;1.30;;;;;;;26.41;36.23;98081.00;5010220;28;20017;-57
2022/08/13 12:01:06;;;;;;;4.75;1.50;;;;;;;26.15;38.24;98050.81;5024298;28;20037;-59
2022/08/13 12:03:31;;;;;;;3.65;1.23;;;;;;;26.58;37.30;98083.50;5010707;28;20022;-57